If you wish to contribute or participate in the discussions about articles you are invited to join SKYbrary as a registered user

 Actions

Bastia - Poretta Airport

From SKYbrary Wiki

LFKB
Airport
ICAO: LFKB – IATA: BIA
Summary
Name Bastia - Poretta Airport
Region Europe
Territory France FR.gif
Location Lucciana, Haute-Corse
Serving Bastia
Elevation 7.925 m
26 ft
26 ft7.925 m
Coordinates 42° 33' 8.96" N, 9° 29' 1.18" E
Runways
Designator Length Width Surface ROPS
16/34 2519 m8,264.436 ft
45 m147.638 ft
ASP yes/yes


METAR
Observation LFKB 201900Z AUTO 02012KT 9999 BKN068 13/03 Q1027 NOSIG
Station Bastia
Date/Time 20 March 2019 19:00:00
Wind direction 20°
Wind speed 12 kts
Lowest cloud amount broken clouds
Temperature 13°C
Dew point 3°C
Humidity 50%
QNH 1027 hPa
Weather condition n/a

BS
Tag(s) Bird Strike

Bastia Airport

ICAO: LFKB IATA: BIA

Description

International airport serving northern Corsica.

Climatology

Dry-summer subtropical ”Mediterranean" climate (Köppen climate classification Csa) - characterized by hot, dry summers and mild winters. During the summer, subtropical high pressure cells dominate, making rainfall unlikely except for the occasional thunderstorm. In the winter, periodic storms bring rain (snow at higher elevations).

Maps

Terrain

Loading map...

Airport Layout

Loading map...


Accidents & Serious Incidents at or in vicinity of LFKB

None on SKYbrary